Time;durP1;ratioP1;P1;durP2;ratioP2;P2;SDS_P1;SDS_P2;PMS_P1;PMS_P2;Temp;Humidity;BMP_temperature;BMP_pressure;BME280_temperature;BME280_humidity;BME280_pressure;Samples;Min_cycle;Max_cycle;Signal;HPM_P1;HPM_P2
2023/03/29 00:02:01;;;;;;;2.38;2.17;;;;;;;6.84;73.88;98700.31;7410716;19;19950;-80
2023/03/29 00:04:27;;;;;;;2.92;2.38;;;;;;;6.84;73.18;98695.06;7411016;19;19931;-80
2023/03/29 00:06:54;;;;;;;4.18;2.55;;;;;;;6.81;73.29;98698.78;7401894;19;19914;-82
2023/03/29 00:09:22;;;;;;;3.63;2.25;;;;;;;6.81;73.19;98695.31;7410723;19;19928;-79
2023/03/29 00:11:48;;;;;;;3.60;3.15;;;;;;;6.82;73.58;98681.22;7406355;19;19943;-81
2023/03/29 00:14:17;;;;;;;2.38;1.75;;;;;;;6.86;73.39;98692.31;7412629;19;19922;-80
2023/03/29 00:16:48;;;;;;;3.33;2.65;;;;;;;6.85;73.53;98694.13;7397344;19;19926;-80
2023/03/29 00:19:15;;;;;;;2.53;2.33;;;;;;;6.87;73.72;98689.56;7409022;19;19946;-80
2023/03/29 00:21:42;;;;;;;2.22;2.08;;;;;;;6.86;74.04;98687.91;7401411;19;19942;-81
2023/03/29 00:24:08;;;;;;;3.03;2.33;;;;;;;6.89;73.94;98684.19;7390220;19;19923;-81
2023/03/29 00:26:35;;;;;;;3.60;3.00;;;;;;;6.89;74.00;98678.91;7391142;19;19926;-82
2023/03/29 00:29:02;;;;;;;2.80;2.28;;;;;;;6.91;73.71;98677.00;7388852;19;19926;-82
2023/03/29 00:31:30;;;;;;;4.07;2.65;;;;;;;6.91;73.90;98679.63;7389370;19;19915;-82
2023/03/29 00:33:57;;;;;;;3.33;2.53;;;;;;;6.84;73.91;98673.19;7386440;19;19943;-83
2023/03/29 00:36:24;;;;;;;2.83;2.20;;;;;;;6.90;73.86;98672.69;7392933;19;19933;-82
2023/03/29 00:38:50;;;;;;;3.03;2.53;;;;;;;6.93;73.48;98673.28;7384601;19;19962;-82
2023/03/29 00:41:17;;;;;;;4.28;2.78;;;;;;;6.90;73.95;98673.56;7381279;19;20348;-82
2023/03/29 00:43:59;;;;;;;3.17;2.15;;;;;;;6.89;74.19;98671.88;7383735;19;19994;-82
2023/03/29 00:46:30;;;;;;;3.63;2.38;;;;;;;6.84;74.47;98666.13;7390176;19;19922;-80
2023/03/29 00:49:05;;;;;;;2.45;2.25;;;;;;;6.89;74.46;98669.22;7386128;19;19922;-81
2023/03/29 00:51:36;;;;;;;3.05;2.80;;;;;;;6.86;74.26;98660.75;7387240;19;19950;-82
2023/03/29 00:54:08;;;;;;;3.72;2.50;;;;;;;6.90;74.17;98651.66;7388238;19;19918;-83
2023/03/29 00:56:38;;;;;;;3.50;2.75;;;;;;;6.92;74.23;98657.63;7386337;19;20248;-82
2023/03/29 00:59:17;;;;;;;3.67;2.53;;;;;;;6.92;74.26;98655.81;7390348;19;19945;-82
2023/03/29 01:01:49;;;;;;;3.53;2.65;;;;;;;6.83;74.36;98648.69;7384622;19;19918;-80
2023/03/29 01:04:56;;;;;;;4.25;2.95;;;;;;;6.86;74.50;98645.81;7390063;19;19933;-81
2023/03/29 01:07:34;;;;;;;4.90;2.83;;;;;;;6.82;74.90;98634.72;7392067;19;19922;-80
2023/03/29 01:10:08;;;;;;;4.18;2.13;;;;;;;6.88;74.53;98637.81;7380664;19;19922;-80
2023/03/29 01:12:39;;;;;;;5.25;3.03;;;;;;;6.85;74.80;98631.00;7380511;19;19919;-81
2023/03/29 01:15:12;;;;;;;5.22;2.42;;;;;;;6.83;74.98;98622.41;7384885;19;20620;-80
2023/03/29 01:17:49;;;;;;;2.90;2.58;;;;;;;6.82;74.89;98629.47;7380762;19;19927;-81
2023/03/29 01:20:21;;;;;;;3.05;2.85;;;;;;;6.89;74.43;98627.16;7389688;19;19921;-82
2023/03/29 01:23:02;;;;;;;3.45;2.65;;;;;;;6.81;74.85;98626.94;7381607;19;19918;-80
2023/03/29 01:25:40;;;;;;;4.90;2.88;;;;;;;6.80;74.81;98618.22;7385458;19;20272;-80
2023/03/29 01:28:13;;;;;;;3.53;2.35;;;;;;;6.76;74.90;98614.16;7380966;19;20551;-78
2023/03/29 01:30:53;;;;;;;2.92;2.72;;;;;;;6.71;75.08;98603.19;7382048;19;19945;-79
2023/03/29 01:33:23;;;;;;;2.80;2.38;;;;;;;6.81;74.78;98600.66;7382973;19;19981;-78
2023/03/29 01:36:03;;;;;;;3.38;2.70;;;;;;;6.73;74.60;98582.88;7378461;19;19918;-79
2023/03/29 01:38:38;;;;;;;4.05;2.33;;;;;;;6.74;74.42;98586.34;7387869;19;19922;-80
2023/03/29 01:41:06;;;;;;;2.60;1.90;;;;;;;6.71;74.42;98579.53;7386285;19;19926;-79
2023/03/29 01:43:48;;;;;;;4.28;2.60;;;;;;;6.69;74.38;98580.63;7384451;19;19922;-81
2023/03/29 01:46:31;;;;;;;4.30;2.40;;;;;;;6.72;74.59;98575.97;7380739;19;19918;-79
2023/03/29 01:49:02;;;;;;;3.53;2.75;;;;;;;6.68;74.67;98566.63;7381776;19;19946;-82
2023/03/29 01:51:57;;;;;;;3.95;3.67;;;;;;;6.70;74.47;98563.91;7386114;19;21138;-81
2023/03/29 01:54:38;;;;;;;2.30;1.73;;;;;;;6.79;74.35;98555.22;7388718;19;19914;-82
2023/03/29 01:57:05;;;;;;;3.67;3.38;;;;;;;6.66;74.74;98562.47;7380310;19;19915;-83
2023/03/29 01:59:35;;;;;;;4.32;4.03;;;;;;;6.59;75.01;98552.47;7389446;19;20541;-79
2023/03/29 02:02:04;;;;;;;2.75;2.55;;;;;;;6.56;74.83;98542.22;7377403;19;21197;-79
2023/03/29 02:04:34;;;;;;;2.78;2.35;;;;;;;6.56;75.03;98544.84;7384252;19;20006;-79
2023/03/29 02:07:02;;;;;;;4.53;3.00;;;;;;;6.62;74.70;98547.94;7382227;19;19922;-82
2023/03/29 02:09:30;;;;;;;3.50;2.92;;;;;;;6.58;74.91;98545.56;7382756;19;19929;-82
2023/03/29 02:11:59;;;;;;;6.25;2.17;;;;;;;6.56;75.01;98551.91;7380808;19;19938;-80
2023/03/29 02:14:26;;;;;;;4.25;2.50;;;;;;;6.70;74.53;98548.94;7389369;19;19914;-81
2023/03/29 02:16:53;;;;;;;3.25;2.95;;;;;;;6.78;74.41;98530.75;7384593;19;19927;-79
2023/03/29 02:19:22;;;;;;;2.92;2.00;;;;;;;6.85;74.07;98532.88;7380783;19;19927;-81
2023/03/29 02:22:00;;;;;;;2.97;2.10;;;;;;;6.89;74.27;98534.28;7385264;19;20281;-81
2023/03/29 02:24:31;;;;;;;2.53;2.22;;;;;;;6.94;73.69;98530.28;7383851;19;20268;-81
2023/03/29 02:26:59;;;;;;;4.28;3.88;;;;;;;6.90;73.97;98528.91;7383691;19;19914;-80
2023/03/29 02:29:26;;;;;;;2.33;1.98;;;;;;;6.99;73.99;98525.47;7383459;19;20413;-81
2023/03/29 02:32:14;;;;;;;2.58;2.13;;;;;;;6.86;74.42;98524.00;7377013;19;20026;-81
2023/03/29 02:34:48;;;;;;;3.22;2.40;;;;;;;6.86;74.32;98522.22;7385398;19;19954;-82
2023/03/29 02:37:17;;;;;;;2.78;2.10;;;;;;;6.82;73.96;98520.81;7383440;19;20716;-81
2023/03/29 02:39:47;;;;;;;3.25;2.33;;;;;;;6.61;73.99;98520.81;7380810;19;19923;-80
2023/03/29 02:42:16;;;;;;;2.95;2.40;;;;;;;6.50;74.15;98521.69;7382560;19;19922;-81
2023/03/29 02:44:44;;;;;;;2.47;2.03;;;;;;;6.54;74.10;98515.22;7382043;19;19922;-84
2023/03/29 02:47:18;;;;;;;2.67;2.47;;;;;;;6.51;74.02;98512.84;7379360;19;19921;-81
2023/03/29 02:49:45;;;;;;;3.55;3.30;;;;;;;6.50;73.93;98498.03;7379419;19;19923;-81
2023/03/29 02:52:19;;;;;;;3.60;1.98;;;;;;;6.65;73.36;98500.34;7381269;19;19922;-80
2023/03/29 02:54:47;;;;;;;2.53;2.05;;;;;;;6.68;73.31;98490.41;7378051;19;19923;-82
2023/03/29 02:57:14;;;;;;;2.15;1.88;;;;;;;6.56;73.06;98481.75;7387601;19;20260;-81
2023/03/29 02:59:42;;;;;;;3.92;3.53;;;;;;;6.63;73.24;98473.34;7387692;19;19922;-81
2023/03/29 03:02:13;;;;;;;2.85;2.35;;;;;;;6.62;73.37;98475.16;7384935;19;19915;-80
2023/03/29 03:04:42;;;;;;;2.47;2.20;;;;;;;6.57;73.52;98462.38;7386382;19;19943;-81
2023/03/29 03:07:08;;;;;;;3.50;2.20;;;;;;;6.52;73.85;98466.34;7382229;19;19934;-79
2023/03/29 03:09:35;;;;;;;4.28;2.72;;;;;;;6.59;73.55;98470.16;7380691;19;19926;-83
2023/03/29 03:12:02;;;;;;;2.97;2.17;;;;;;;6.52;73.14;98461.94;7383116;19;19934;-80
2023/03/29 03:14:29;;;;;;;3.28;2.38;;;;;;;6.48;73.27;98449.19;7385849;19;19929;-80
2023/03/29 03:16:58;;;;;;;2.55;1.90;;;;;;;6.47;73.37;98460.66;7379939;19;20340;-81
2023/03/29 03:19:28;;;;;;;5.47;2.92;;;;;;;6.58;73.56;98450.91;7385394;19;19933;-81
2023/03/29 03:21:55;;;;;;;3.10;2.70;;;;;;;6.69;72.74;98452.66;7379969;19;19918;-83
2023/03/29 03:24:22;;;;;;;3.63;2.50;;;;;;;6.75;72.17;98456.56;7379288;19;19994;-82
2023/03/29 03:26:49;;;;;;;4.13;1.98;;;;;;;6.77;71.86;98462.53;7377800;19;19922;-81
2023/03/29 03:29:17;;;;;;;2.63;2.30;;;;;;;6.57;72.71;98472.06;7385779;19;19922;-81
2023/03/29 03:32:03;;;;;;;2.47;2.10;;;;;;;6.47;72.79;98465.91;7380756;19;19962;-80
2023/03/29 03:34:55;;;;;;;2.63;2.03;;;;;;;6.43;73.17;98465.34;7380037;19;19929;-80
2023/03/29 03:37:24;;;;;;;2.60;2.40;;;;;;;6.50;73.47;98470.91;7378733;19;19922;-82
2023/03/29 03:39:51;;;;;;;3.95;2.60;;;;;;;6.57;73.41;98453.66;7375998;19;19915;-80
2023/03/29 03:42:18;;;;;;;3.65;2.50;;;;;;;6.62;72.90;98455.91;7388392;19;20408;-81
2023/03/29 03:44:46;;;;;;;3.10;2.17;;;;;;;6.70;73.04;98461.34;7390541;19;19922;-81
2023/03/29 03:47:31;;;;;;;2.88;2.25;;;;;;;6.70;73.02;98450.84;7389230;19;19921;-82
2023/03/29 03:50:12;;;;;;;3.05;2.30;;;;;;;6.76;72.89;98452.94;7386799;19;19918;-82
2023/03/29 03:52:39;;;;;;;2.88;2.65;;;;;;;6.72;72.93;98455.00;7382927;19;19919;-81
2023/03/29 03:55:08;;;;;;;2.85;2.40;;;;;;;6.76;72.75;98460.84;7381887;19;19919;-80
2023/03/29 03:57:55;;;;;;;2.55;2.10;;;;;;;6.75;72.83;98459.19;7389490;19;19942;-83
2023/03/29 04:00:22;;;;;;;2.90;2.50;;;;;;;6.78;72.58;98454.47;7392106;19;19926;-81
2023/03/29 04:03:20;;;;;;;2.97;2.53;;;;;;;6.83;72.63;98454.09;7392726;19;19918;-82
2023/03/29 04:05:47;;;;;;;3.08;2.83;;;;;;;6.75;72.16;98454.75;7389037;19;20268;-79
2023/03/29 04:08:16;;;;;;;2.45;2.13;;;;;;;6.89;72.40;98458.84;7390426;19;19982;-82
2023/03/29 04:11:21;;;;;;;2.65;2.13;;;;;;;6.93;72.59;98462.06;7388287;19;20418;-82
2023/03/29 04:13:47;;;;;;;2.38;2.17;;;;;;;6.89;72.34;98458.84;7382001;19;19914;-80
2023/03/29 04:16:28;;;;;;;2.45;2.25;;;;;;;6.95;72.46;98466.22;7385052;19;19922;-80
2023/03/29 04:19:01;;;;;;;4.85;2.15;;;;;;;6.98;72.88;98468.59;7388017;19;19930;-81
2023/03/29 04:21:28;;;;;;;4.05;2.65;;;;;;;6.94;73.45;98467.16;7391576;19;19922;-82
2023/03/29 04:23:54;;;;;;;2.17;1.73;;;;;;;7.00;72.83;98469.28;7382242;19;20246;-81
2023/03/29 04:26:21;;;;;;;2.58;2.28;;;;;;;7.03;73.06;98474.28;7385383;19;20361;-82
2023/03/29 04:29:07;;;;;;;2.25;1.83;;;;;;;7.01;72.47;98475.38;7380566;19;19958;-80
2023/03/29 04:31:45;;;;;;;3.40;2.10;;;;;;;7.04;72.31;98481.19;7384340;19;19929;-81
2023/03/29 04:34:32;;;;;;;2.33;2.15;;;;;;;7.04;71.82;98465.41;7386598;19;19926;-82
2023/03/29 04:36:59;;;;;;;2.45;2.05;;;;;;;7.07;72.08;98474.03;7382106;19;19922;-82
2023/03/29 04:39:32;;;;;;;2.42;2.22;;;;;;;7.09;72.10;98470.28;7387019;19;19928;-80
2023/03/29 04:42:02;;;;;;;3.17;2.53;;;;;;;7.15;72.55;98469.75;7384073;19;19963;-82
2023/03/29 04:44:33;;;;;;;3.08;2.55;;;;;;;7.11;72.06;98471.00;7385763;19;19918;-81
2023/03/29 04:47:03;;;;;;;2.70;1.90;;;;;;;7.19;72.12;98470.34;7382832;19;20237;-82
2023/03/29 04:50:02;;;;;;;3.25;2.47;;;;;;;7.22;72.20;98468.28;7384034;19;19951;-81
2023/03/29 04:52:37;;;;;;;3.20;2.40;;;;;;;7.14;71.71;98476.00;7388501;19;19918;-81
2023/03/29 04:55:05;;;;;;;3.55;2.90;;;;;;;7.09;72.27;98474.72;7379810;19;19919;-81
2023/03/29 04:57:55;;;;;;;4.15;2.25;;;;;;;7.15;72.51;98475.03;7386552;19;19925;-82
2023/03/29 05:00:31;;;;;;;2.95;2.15;;;;;;;7.17;72.00;98475.72;7382615;19;19911;-83
2023/03/29 05:03:15;;;;;;;2.03;1.83;;;;;;;7.22;72.39;98478.81;7381706;19;20340;-82
2023/03/29 05:05:52;;;;;;;2.33;2.10;;;;;;;7.23;71.68;98474.38;7377436;19;19910;-82
2023/03/29 05:08:20;;;;;;;3.28;2.22;;;;;;;7.28;71.52;98477.44;7389863;19;19925;-81
2023/03/29 05:11:09;;;;;;;2.53;2.22;;;;;;;7.28;71.12;98477.44;7386283;19;20372;-80
2023/03/29 05:13:36;;;;;;;4.43;2.28;;;;;;;7.31;72.08;98473.72;7391721;19;19922;-83
2023/03/29 05:16:04;;;;;;;3.30;2.47;;;;;;;7.29;71.98;98473.00;7383680;19;19918;-81
2023/03/29 05:18:31;;;;;;;3.08;1.92;;;;;;;7.33;71.43;98475.25;7388947;19;19918;-79
2023/03/29 05:20:58;;;;;;;3.65;2.20;;;;;;;7.38;71.38;98467.78;7387237;19;19943;-81
2023/03/29 05:23:27;;;;;;;2.85;2.42;;;;;;;7.42;71.62;98466.53;7384970;19;19931;-80
2023/03/29 05:26:17;;;;;;;2.55;1.60;;;;;;;7.45;71.00;98466.28;7384284;19;19982;-83
2023/03/29 05:28:49;;;;;;;4.40;3.22;;;;;;;7.45;70.92;98470.69;7384733;19;19923;-80
2023/03/29 05:31:17;;;;;;;2.90;2.35;;;;;;;7.44;70.64;98472.50;7388026;19;19910;-80
2023/03/29 05:33:49;;;;;;;2.35;2.08;;;;;;;7.48;71.20;98470.47;7383781;19;19948;-82
2023/03/29 05:36:17;;;;;;;2.38;2.17;;;;;;;7.53;71.07;98464.75;7381974;19;19922;-81
2023/03/29 05:38:48;;;;;;;3.13;1.90;;;;;;;7.56;69.70;98465.34;7380820;19;19926;-81
2023/03/29 05:41:16;;;;;;;3.88;2.15;;;;;;;7.61;70.23;98465.78;7379060;19;19939;-81
2023/03/29 05:44:17;;;;;;;2.55;1.70;;;;;;;7.64;70.34;98468.13;7386394;19;19907;-83
2023/03/29 05:46:49;;;;;;;2.83;1.90;;;;;;;7.72;70.34;98467.47;7380500;19;19934;-82
2023/03/29 05:49:16;;;;;;;3.20;1.85;;;;;;;7.78;69.97;98459.03;7383427;19;19923;-82
2023/03/29 05:52:00;;;;;;;2.17;1.98;;;;;;;7.78;70.75;98469.56;7375269;19;19922;-80
2023/03/29 05:54:28;;;;;;;5.18;1.98;;;;;;;7.78;68.73;98459.03;7384853;19;19977;-81
2023/03/29 05:56:56;;;;;;;2.33;1.85;;;;;;;7.88;69.13;98464.31;7378062;19;20622;-80
2023/03/29 05:59:23;;;;;;;3.00;1.75;;;;;;;7.89;69.68;98465.97;7383713;19;19956;-82
2023/03/29 06:01:50;;;;;;;3.15;2.95;;;;;;;7.81;70.42;98476.34;7388338;19;19923;-80
2023/03/29 06:04:19;;;;;;;2.28;2.08;;;;;;;7.81;70.25;98474.53;7386564;19;21256;-82
2023/03/29 06:07:03;;;;;;;3.33;1.70;;;;;;;7.83;69.74;98472.63;7381296;19;19945;-81
2023/03/29 06:09:31;;;;;;;2.03;1.83;;;;;;;7.90;69.78;98470.28;7380504;19;20002;-81
2023/03/29 06:12:02;;;;;;;;;;;;;;;8.02;70.14;98473.63;7383512;19;19970;-80
2023/03/29 06:14:39;;;;;;;3.67;1.98;;;;;;;8.10;68.62;98477.22;7381936;19;19919;-80
2023/03/29 06:17:17;;;;;;;2.83;1.60;;;;;;;8.15;67.81;98484.72;7374502;19;19926;-81
2023/03/29 06:19:45;;;;;;;2.88;2.20;;;;;;;8.28;67.58;98484.44;7389398;19;19940;-82
2023/03/29 06:22:12;;;;;;;5.78;2.20;;;;;;;8.29;65.13;98475.56;7386560;19;19980;-82
2023/03/29 06:24:41;;;;;;;2.85;2.63;;;;;;;8.48;66.21;98485.31;7388385;19;20278;-82
2023/03/29 06:27:15;;;;;;;1.80;1.70;;;;;;;8.47;67.31;98481.81;7381683;19;19919;-82
2023/03/29 06:29:42;;;;;;;3.22;1.95;;;;;;;8.51;66.56;98485.03;7388310;19;19930;-80
2023/03/29 06:32:10;;;;;;;2.58;2.30;;;;;;;8.41;65.87;98487.66;7381457;19;19947;-82
2023/03/29 06:34:46;;;;;;;2.80;1.90;;;;;;;8.60;66.88;98488.63;7388136;19;19918;-81
2023/03/29 06:37:26;;;;;;;2.08;1.85;;;;;;;8.57;65.67;98502.94;7391083;19;20629;-82
2023/03/29 06:40:29;;;;;;;2.22;1.80;;;;;;;8.48;65.46;98491.41;7392353;19;20324;-81
2023/03/29 06:42:58;;;;;;;1.92;1.73;;;;;;;8.48;64.67;98501.16;7389932;19;19923;-82
2023/03/29 06:45:43;;;;;;;5.88;1.70;;;;;;;8.52;63.09;98495.44;7395209;19;19922;-82
2023/03/29 06:48:19;;;;;;;3.78;2.03;;;;;;;8.70;64.40;98492.09;7389605;19;20339;-81
2023/03/29 06:50:47;;;;;;;2.22;1.85;;;;;;;8.71;64.70;98502.50;7395943;19;19923;-81
2023/03/29 06:53:15;;;;;;;3.55;3.30;;;;;;;8.80;65.14;98503.47;7393324;19;22047;-82
2023/03/29 06:55:51;;;;;;;2.92;1.92;;;;;;;8.93;66.30;98490.81;7392786;19;19929;-83
2023/03/29 06:58:38;;;;;;;;;;;;;;;9.12;65.92;98497.84;7402281;19;19946;-82
2023/03/29 07:01:24;;;;;;;6.47;2.25;;;;;;;9.10;61.93;98498.94;7399141;19;20003;-81
2023/03/29 07:04:03;;;;;;;3.60;2.78;;;;;;;9.34;63.46;98490.53;7390544;19;19933;-80
2023/03/29 07:06:37;;;;;;;4.82;2.00;;;;;;;9.51;63.37;98492.41;7404959;19;19921;-81
2023/03/29 07:09:05;;;;;;;3.90;1.90;;;;;;;9.53;61.44;98494.91;7393664;19;19930;-82
2023/03/29 07:11:48;;;;;;;2.63;2.40;;;;;;;9.74;62.87;98503.44;7394232;19;19926;-81
2023/03/29 07:14:22;;;;;;;4.20;2.30;;;;;;;9.54;61.27;98510.59;7397208;19;19990;-83
2023/03/29 07:16:52;;;;;;;3.35;2.08;;;;;;;9.73;62.47;98508.84;7393178;19;19914;-81
2023/03/29 07:19:28;;;;;;;2.83;2.17;;;;;;;9.86;62.40;98519.91;7394285;19;19915;-81
2023/03/29 07:22:28;;;;;;;3.65;1.63;;;;;;;9.74;62.64;98521.06;7389050;19;20243;-82
2023/03/29 07:24:59;;;;;;;5.00;2.60;;;;;;;9.69;62.90;98521.53;7382635;19;19938;-82
2023/03/29 07:27:26;;;;;;;2.35;1.70;;;;;;;9.65;63.88;98528.91;7383349;19;19953;-81
2023/03/29 07:29:53;;;;;;;4.15;2.33;;;;;;;9.68;63.92;98531.25;7395740;19;19918;-81
2023/03/29 07:32:20;;;;;;;3.40;2.40;;;;;;;9.81;63.05;98522.16;7390741;19;19930;-80
2023/03/29 07:35:11;;;;;;;3.50;2.03;;;;;;;9.84;60.55;98530.59;7392686;19;19934;-82
2023/03/29 07:37:37;;;;;;;5.22;2.03;;;;;;;9.93;62.14;98528.91;7391799;19;20600;-81
2023/03/29 07:40:15;;;;;;;3.92;2.13;;;;;;;9.99;62.62;98525.66;7391119;19;19922;-81
2023/03/29 07:42:57;;;;;;;3.13;2.17;;;;;;;10.06;63.02;98524.09;7393578;19;19917;-81
2023/03/29 07:45:28;;;;;;;;;;;;;;;10.30;62.79;98520.09;7396064;19;21236;-82
2023/03/29 07:48:03;;;;;;;2.83;2.20;;;;;;;10.47;62.67;98526.34;7392458;19;19918;-83
2023/03/29 07:50:46;;;;;;;3.33;1.70;;;;;;;10.55;61.92;98524.59;7397255;19;19966;-81
2023/03/29 07:53:14;;;;;;;2.58;2.38;;;;;;;10.62;61.50;98529.31;7390787;19;19910;-82
2023/03/29 07:55:45;;;;;;;4.43;2.22;;;;;;;10.50;58.30;98536.63;7394916;19;19945;-82
2023/03/29 07:58:34;;;;;;;2.72;1.90;;;;;;;10.63;58.99;98533.59;7398718;19;19918;-81
2023/03/29 08:01:01;;;;;;;2.28;1.70;;;;;;;10.70;60.08;98538.13;7394830;19;19947;-83
2023/03/29 08:03:48;;;;;;;3.25;1.48;;;;;;;10.72;57.34;98538.81;7395830;19;19973;-81
2023/03/29 08:06:15;;;;;;;3.92;1.25;;;;;;;10.92;57.77;98534.16;7393754;19;19922;-82
2023/03/29 08:08:43;;;;;;;2.50;1.90;;;;;;;10.99;55.95;98542.34;7397570;19;19974;-82
2023/03/29 08:11:14;;;;;;;5.18;1.65;;;;;;;11.19;56.93;98535.88;7392737;19;19914;-82
2023/03/29 08:13:59;;;;;;;2.67;1.83;;;;;;;11.25;56.10;98541.53;7393454;19;19931;-83
2023/03/29 08:16:48;;;;;;;3.55;2.03;;;;;;;11.29;56.55;98537.56;7387165;19;19911;-82
2023/03/29 08:19:16;;;;;;;3.28;1.63;;;;;;;11.34;56.54;98536.09;7390867;19;19978;-83
2023/03/29 08:21:52;;;;;;;5.38;1.67;;;;;;;11.38;57.86;98537.47;7393467;19;19914;-82
2023/03/29 08:24:22;;;;;;;3.30;1.63;;;;;;;11.57;58.10;98532.94;7391494;19;19918;-83
2023/03/29 08:26:58;;;;;;;2.05;1.77;;;;;;;11.80;57.84;98526.06;7392879;19;19915;-81
2023/03/29 08:29:25;;;;;;;4.25;3.00;;;;;;;11.99;57.01;98526.84;7392918;19;19943;-82
2023/03/29 08:31:55;;;;;;;6.40;3.28;;;;;;;12.20;56.53;98527.22;7393726;19;19911;-81
2023/03/29 08:34:22;;;;;;;7.35;4.13;;;;;;;12.33;56.31;98528.59;7390796;19;20705;-82
2023/03/29 08:37:09;;;;;;;5.00;3.45;;;;;;;12.49;55.96;98531.25;7386022;19;19952;-82
2023/03/29 08:39:41;;;;;;;5.47;3.10;;;;;;;12.62;55.93;98536.91;7388659;19;19918;-82
2023/03/29 08:42:41;;;;;;;4.90;3.00;;;;;;;12.77;54.72;98536.25;7394595;19;19925;-82
2023/03/29 08:45:13;;;;;;;3.63;1.80;;;;;;;12.80;54.40;98533.28;7385436;19;19927;-82
2023/03/29 08:47:51;;;;;;;3.58;2.20;;;;;;;12.76;54.29;98535.41;7391773;19;19931;-81
2023/03/29 08:50:19;;;;;;;2.90;2.10;;;;;;;12.73;54.30;98544.53;7388844;19;19922;-83
2023/03/29 08:52:56;;;;;;;3.38;1.83;;;;;;;12.60;54.45;98535.41;7389202;19;20087;-81
2023/03/29 08:55:47;;;;;;;6.00;2.97;;;;;;;12.58;54.88;98524.94;7385135;19;19950;-83
2023/03/29 08:58:31;;;;;;;5.53;3.03;;;;;;;12.65;54.51;98523.31;7393976;19;19914;-82
2023/03/29 09:01:00;;;;;;;7.57;4.93;;;;;;;12.71;54.90;98514.66;7391994;19;20681;-82
2023/03/29 09:03:39;;;;;;;4.22;2.10;;;;;;;12.82;55.09;98518.00;7387876;19;19963;-82
2023/03/29 09:06:12;;;;;;;4.47;1.73;;;;;;;12.92;54.29;98518.66;7383771;19;19957;-82
2023/03/29 09:08:43;;;;;;;2.97;2.72;;;;;;;12.89;53.94;98519.81;7384964;19;20690;-81
2023/03/29 09:11:13;;;;;;;3.67;2.15;;;;;;;12.93;53.99;98513.19;7382156;19;19930;-81
2023/03/29 09:13:49;;;;;;;3.70;2.20;;;;;;;13.15;53.65;98513.50;7387331;19;19961;-81
2023/03/29 09:16:32;;;;;;;5.10;2.42;;;;;;;13.30;53.23;98511.00;7384037;19;19923;-82
2023/03/29 09:19:26;;;;;;;6.95;2.45;;;;;;;13.35;53.57;98514.00;7391930;19;20313;-81
2023/03/29 09:22:14;;;;;;;3.85;2.15;;;;;;;13.45;52.85;98511.94;7391916;19;19978;-82
2023/03/29 09:24:52;;;;;;;3.72;2.72;;;;;;;13.52;52.55;98512.94;7391277;19;19935;-82
2023/03/29 09:27:40;;;;;;;1.95;1.55;;;;;;;13.47;52.76;98514.44;7389926;19;19926;-83
2023/03/29 09:30:27;;;;;;;2.90;1.63;;;;;;;13.56;52.17;98514.25;7385969;19;19914;-83
2023/03/29 09:33:03;;;;;;;3.47;1.42;;;;;;;13.41;50.54;98507.97;7389882;19;19923;-81
2023/03/29 09:35:53;;;;;;;3.90;1.67;;;;;;;13.54;51.60;98502.97;7388011;19;19951;-80
2023/03/29 09:38:21;;;;;;;3.65;1.13;;;;;;;13.70;50.71;98514.53;7389128;19;20564;-83
2023/03/29 09:40:56;;;;;;;2.25;1.67;;;;;;;13.86;49.46;98503.00;7393792;19;19962;-81
2023/03/29 09:43:33;;;;;;;3.28;1.50;;;;;;;14.08;49.59;98499.53;7387496;19;19923;-80
2023/03/29 09:46:05;;;;;;;1.63;1.33;;;;;;;14.15;50.07;98497.84;7390596;19;19981;-80
2023/03/29 09:48:36;;;;;;;1.85;1.50;;;;;;;14.17;47.94;98492.38;7390462;19;19921;-81
2023/03/29 09:51:04;;;;;;;2.10;1.20;;;;;;;13.96;48.04;98487.66;7384505;19;19922;-80
2023/03/29 09:53:31;;;;;;;2.03;1.52;;;;;;;14.03;48.05;98483.28;7385275;19;19943;-83
2023/03/29 09:56:17;;;;;;;2.85;1.30;;;;;;;14.16;48.35;98472.88;7386459;19;20343;-83
2023/03/29 09:58:50;;;;;;;4.53;1.48;;;;;;;14.31;48.04;98469.47;7389694;19;19919;-81
2023/03/29 10:01:18;;;;;;;3.42;1.40;;;;;;;14.32;48.51;98471.94;7386716;19;20296;-83
2023/03/29 10:03:50;;;;;;;3.42;1.80;;;;;;;14.42;48.50;98469.88;7385779;19;19919;-80
2023/03/29 10:06:19;;;;;;;2.35;1.13;;;;;;;14.45;48.80;98472.19;7383470;19;19917;-81
2023/03/29 10:08:55;;;;;;;2.60;1.45;;;;;;;14.35;46.94;98476.94;7385710;19;19945;-79
2023/03/29 10:11:30;;;;;;;2.17;1.35;;;;;;;14.19;46.93;98485.88;7387842;19;19966;-81
2023/03/29 10:14:03;;;;;;;3.45;1.23;;;;;;;14.22;48.48;98482.03;7391913;19;19914;-80
2023/03/29 10:16:40;;;;;;;2.25;1.45;;;;;;;14.19;47.44;98487.66;7388392;19;19929;-81
2023/03/29 10:19:49;;;;;;;1.90;1.15;;;;;;;14.38;47.04;98471.25;7384606;19;19925;-81
2023/03/29 10:22:22;;;;;;;3.97;1.15;;;;;;;14.65;46.85;98472.56;7389304;19;19914;-79
2023/03/29 10:24:51;;;;;;;3.42;1.58;;;;;;;14.45;46.26;98477.50;7389155;19;21107;-79
2023/03/29 10:27:22;;;;;;;2.67;2.28;;;;;;;14.58;46.58;98470.78;7390114;19;20383;-81
2023/03/29 10:29:49;;;;;;;1.45;1.05;;;;;;;14.62;46.09;98472.09;7390211;19;20030;-80
2023/03/29 10:32:31;;;;;;;2.53;1.23;;;;;;;14.63;46.45;98473.75;7388057;19;20345;-82
2023/03/29 10:35:10;;;;;;;2.20;1.15;;;;;;;14.57;46.16;98467.31;7392879;19;20381;-81
2023/03/29 10:37:42;;;;;;;2.78;1.88;;;;;;;14.90;46.21;98454.53;7388099;19;19914;-79
2023/03/29 10:40:30;;;;;;;2.30;1.73;;;;;;;15.06;44.93;98458.88;7391871;19;20329;-80
2023/03/29 10:43:19;;;;;;;2.83;1.20;;;;;;;15.16;44.58;98455.94;7391136;19;19917;-81
2023/03/29 10:45:50;;;;;;;2.00;1.55;;;;;;;15.27;43.25;98465.31;7392868;19;19918;-80
2023/03/29 10:48:18;;;;;;;2.10;1.35;;;;;;;15.20;43.23;98459.91;7386769;19;19923;-81
2023/03/29 10:50:51;;;;;;;1.50;1.20;;;;;;;15.37;44.83;98450.69;7394686;19;19939;-81
2023/03/29 10:53:26;;;;;;;1.38;1.23;;;;;;;15.61;44.05;98448.75;7384064;19;19917;-81
2023/03/29 10:56:06;;;;;;;4.22;1.77;;;;;;;15.69;43.31;98442.50;7391763;19;20264;-81
2023/03/29 10:58:41;;;;;;;1.77;1.00;;;;;;;15.74;43.48;98437.44;7394069;19;19926;-81
2023/03/29 11:01:16;;;;;;;1.98;1.15;;;;;;;15.84;43.29;98447.81;7386998;19;19921;-80
2023/03/29 11:04:19;;;;;;;2.05;1.25;;;;;;;16.07;43.07;98448.50;7392465;19;19928;-81
2023/03/29 11:07:24;;;;;;;2.25;1.02;;;;;;;16.48;40.85;98441.69;7401572;19;19982;-80
2023/03/29 11:10:11;;;;;;;2.72;1.25;;;;;;;16.62;41.14;98438.13;7397597;19;19914;-81
2023/03/29 11:12:48;;;;;;;1.92;1.23;;;;;;;16.98;43.70;98435.38;7405468;19;20345;-81
2023/03/29 11:15:28;;;;;;;1.48;1.23;;;;;;;17.24;39.70;98423.16;7393493;19;19929;-81
2023/03/29 11:18:26;;;;;;;2.67;1.23;;;;;;;17.30;40.33;98422.41;7400120;19;19922;-80
2023/03/29 11:21:00;;;;;;;2.47;1.52;;;;;;;17.34;38.84;98415.63;7401416;19;19950;-81
2023/03/29 11:23:52;;;;;;;1.80;1.38;;;;;;;17.62;39.58;98410.19;7395394;19;19942;-82
2023/03/29 11:26:23;;;;;;;2.60;1.10;;;;;;;17.89;39.82;98419.16;7398691;19;19922;-81
2023/03/29 11:29:01;;;;;;;1.40;1.02;;;;;;;18.29;40.31;98402.34;7403320;19;19922;-81
2023/03/29 11:32:24;;;;;;;2.85;1.02;;;;;;;18.71;39.02;98398.44;7399556;19;20537;-82
2023/03/29 11:35:26;;;;;;;2.08;1.25;;;;;;;19.26;35.84;98400.84;7401390;19;20907;-81
2023/03/29 11:37:55;;;;;;;3.13;1.17;;;;;;;19.44;37.35;98400.19;7397038;19;19949;-81
2023/03/29 11:40:44;;;;;;;3.92;1.50;;;;;;;19.53;36.19;98401.56;7393753;19;19918;-81
2023/03/29 11:43:17;;;;;;;1.92;1.25;;;;;;;19.64;36.45;98400.94;7401369;19;19930;-82
2023/03/29 11:45:49;;;;;;;3.67;1.30;;;;;;;19.87;35.10;98400.41;7404577;19;20396;-82
2023/03/29 11:48:21;;;;;;;3.28;1.00;;;;;;;20.61;35.64;98395.38;7404908;19;19943;-81
2023/03/29 11:51:16;;;;;;;4.80;1.63;;;;;;;21.43;32.26;98393.38;7410511;19;19922;-81
2023/03/29 11:54:21;;;;;;;3.42;2.08;;;;;;;21.67;33.27;98382.72;7404837;19;19929;-82
2023/03/29 11:56:55;;;;;;;3.13;1.25;;;;;;;20.45;32.26;98382.47;7394119;19;20348;-80
2023/03/29 11:59:27;;;;;;;2.10;1.10;;;;;;;20.59;35.02;98390.25;7390949;19;19922;-82
2023/03/29 12:02:01;;;;;;;2.47;1.17;;;;;;;20.80;34.59;98372.03;7401353;19;19926;-80
2023/03/29 12:04:31;;;;;;;2.75;1.10;;;;;;;20.86;35.86;98381.94;7399946;19;19910;-81
2023/03/29 12:07:12;;;;;;;2.35;1.23;;;;;;;20.97;34.82;98377.69;7405227;19;19915;-81
2023/03/29 12:09:53;;;;;;;2.58;1.17;;;;;;;21.21;33.08;98368.72;7409619;19;19935;-82
2023/03/29 12:12:42;;;;;;;3.10;1.60;;;;;;;21.04;33.16;98365.00;7386095;19;20697;-81
2023/03/29 12:15:18;;;;;;;2.45;0.90;;;;;;;20.91;34.68;98355.22;7389602;19;19921;-82
2023/03/29 12:17:53;;;;;;;1.65;1.00;;;;;;;20.63;32.93;98355.69;7389971;19;19922;-82